Time;durP1;ratioP1;P1;durP2;ratioP2;P2;SDS_P1;SDS_P2;PMS_P1;PMS_P2;Temp;Humidity;BMP_temperature;BMP_pressure;BME280_temperature;BME280_humidity;BME280_pressure;Samples;Min_cycle;Max_cycle;Signal;HPM_P1;HPM_P2
2022/02/10 00:21:22;;;;;;;49.30;23.95;;;;;;;4.42;100.00;101342.38;5079924;28;20491;-72
2022/02/10 00:34:33;;;;;;;43.92;23.10;;;;;;;4.16;100.00;101349.06;5104229;27;20078;-72
2022/02/10 00:37:10;;;;;;;45.70;23.02;;;;;;;4.12;100.00;101342.34;5059369;28;20034;-72
2022/02/10 00:42:05;;;;;;;48.30;22.95;;;;;;;4.01;100.00;101346.75;5082466;27;20396;-72
2022/02/10 00:44:30;;;;;;;42.95;22.98;;;;;;;3.99;100.00;101351.63;5073541;28;20032;-72
2022/02/10 00:46:56;;;;;;;44.00;24.05;;;;;;;3.93;100.00;101343.47;5076212;28;20040;-72
2022/02/10 00:49:21;;;;;;;41.47;22.50;;;;;;;3.88;100.00;101352.38;5087636;27;20027;-72
2022/02/10 00:51:48;;;;;;;43.67;23.90;;;;;;;3.86;100.00;101348.19;5078209;28;20055;-72
2022/02/10 00:54:18;;;;;;;42.92;22.65;;;;;;;3.85;100.00;101335.53;5103094;27;20118;-72
2022/02/10 00:56:44;;;;;;;41.88;21.85;;;;;;;3.80;100.00;101345.28;5094274;28;20029;-72
2022/02/10 00:59:19;;;;;;;43.25;22.27;;;;;;;3.80;100.00;101349.94;5078723;28;20036;-72
2022/02/10 01:10:26;;;;;;;42.80;22.75;;;;;;;3.76;100.00;101343.19;5093818;27;20062;-72
2022/02/10 01:31:14;;;;;;;41.05;22.13;;;;;;;3.94;100.00;101342.38;5090879;28;20047;-72
2022/02/10 01:33:41;;;;;;;35.40;20.27;;;;;;;3.96;100.00;101337.50;5065518;28;20054;-72
2022/02/10 01:36:07;;;;;;;41.13;21.42;;;;;;;3.99;100.00;101342.53;5085875;27;20038;-72
2022/02/10 01:38:33;;;;;;;42.88;22.42;;;;;;;3.98;100.00;101329.84;5079746;28;20027;-72
2022/02/10 02:05:33;;;;;;;37.90;20.30;;;;;;;4.11;100.00;101346.19;5096172;28;20036;-72
2022/02/10 02:08:00;;;;;;;36.83;19.55;;;;;;;4.12;100.00;101342.34;5093733;28;20503;-72
2022/02/10 02:10:25;;;;;;;32.88;19.52;;;;;;;4.15;100.00;101352.91;5096968;28;20028;-72
2022/02/10 02:12:51;;;;;;;37.72;19.67;;;;;;;4.15;100.00;101350.16;5092895;28;20031;-72
2022/02/10 02:15:16;;;;;;;36.63;20.77;;;;;;;4.15;100.00;101341.91;5099422;27;20088;-72
2022/02/10 02:17:41;;;;;;;35.15;20.08;;;;;;;4.17;100.00;101342.50;5056915;28;20036;-72
2022/02/10 02:20:07;;;;;;;33.75;19.42;;;;;;;4.18;100.00;101346.94;5091531;27;20027;-72
2022/02/10 02:22:33;;;;;;;33.85;19.33;;;;;;;4.18;100.00;101341.44;5082241;28;20038;-73
2022/02/10 02:24:58;;;;;;;34.75;18.55;;;;;;;4.17;100.00;101345.25;5059973;28;20035;-72
2022/02/10 02:27:26;;;;;;;34.35;18.65;;;;;;;4.17;100.00;101344.41;5099841;27;20474;-72
2022/02/10 02:30:07;;;;;;;32.20;18.70;;;;;;;4.19;100.00;101345.03;5064327;28;20032;-72
2022/02/10 02:32:36;;;;;;;32.90;19.67;;;;;;;4.19;100.00;101354.13;5078956;28;20396;-72
2022/02/10 02:38:05;;;;;;;32.50;18.77;;;;;;;4.19;100.00;101347.78;5091263;28;20035;-72
2022/02/10 03:05:33;;;;;;;31.05;17.50;;;;;;;4.24;100.00;101323.19;5077662;28;20032;-72
2022/02/10 03:08:00;;;;;;;30.70;16.23;;;;;;;4.24;100.00;101317.69;5079024;28;20039;-72
2022/02/10 03:13:03;;;;;;;26.92;15.85;;;;;;;4.22;100.00;101314.31;5090682;28;20080;-72
2022/02/10 03:15:40;;;;;;;30.30;16.23;;;;;;;4.22;100.00;101317.91;5094121;28;20615;-72
2022/02/10 03:18:23;;;;;;;27.58;15.77;;;;;;;4.21;100.00;101309.91;5070566;28;20065;-72
2022/02/10 04:04:54;;;;;;;28.70;15.23;;;;;;;4.07;100.00;101322.13;5087516;28;20039;-72
2022/02/10 04:13:11;;;;;;;22.65;14.80;;;;;;;3.99;100.00;101320.53;4992539;28;20061;-72
2022/02/10 04:15:44;;;;;;;25.45;15.45;;;;;;;4.01;100.00;101324.75;5009702;28;20045;-72
2022/02/10 04:26:28;;;;;;;25.13;14.10;;;;;;;4.04;100.00;101334.44;5081164;28;20123;-72
2022/02/10 05:19:17;;;;;;;21.83;12.43;;;;;;;4.16;100.00;101310.59;5070823;28;20027;-72
2022/02/10 05:24:27;;;;;;;20.85;12.23;;;;;;;4.17;100.00;101300.41;5077173;28;20036;-72
2022/02/10 05:35:32;;;;;;;21.60;12.48;;;;;;;4.18;100.00;101313.94;5084920;28;20024;-72
2022/02/10 05:38:08;;;;;;;22.38;12.50;;;;;;;4.18;100.00;101313.94;5083763;28;20080;-72
2022/02/10 05:55:47;;;;;;;23.95;13.00;;;;;;;4.15;100.00;101319.91;5110969;28;20039;-72
2022/02/10 05:58:26;;;;;;;18.92;11.77;;;;;;;4.18;100.00;101321.34;5076590;28;20115;-72
2022/02/10 06:01:43;;;;;;;18.02;11.48;;;;;;;4.17;100.00;101317.75;5085701;28;20028;-72
2022/02/10 06:47:56;;;;;;;16.92;10.70;;;;;;;4.14;100.00;101300.88;5113231;28;20088;-72
2022/02/10 06:52:51;;;;;;;18.55;10.30;;;;;;;4.17;100.00;101295.75;5123369;28;20035;-72
2022/02/10 06:58:39;;;;;;;16.73;9.95;;;;;;;4.18;100.00;101305.69;5112891;28;20035;-74
2022/02/10 07:44:57;;;;;;;15.10;9.40;;;;;;;4.17;100.00;101342.50;5081948;28;20419;-75
2022/02/10 07:54:15;;;;;;;15.30;9.55;;;;;;;4.21;100.00;101356.66;5111566;28;20028;-76
2022/02/10 08:50:55;;;;;;;15.50;9.80;;;;;;;4.85;100.00;101414.81;5070186;28;20036;-75
2022/02/10 08:56:10;;;;;;;13.20;8.63;;;;;;;4.98;100.00;101405.50;5094143;28;20165;-75
2022/02/10 08:58:57;;;;;;;15.68;9.73;;;;;;;5.06;100.00;101402.41;5057750;28;20036;-76
2022/02/10 10:08:07;;;;;;;15.05;9.27;;;;;;;8.91;100.00;101409.19;5124386;27;20106;-77
2022/02/10 10:21:03;;;;;;;12.63;8.02;;;;;;;9.48;100.00;101397.53;5101610;27;20027;-78
2022/02/10 10:54:20;;;;;;;13.50;7.40;;;;;;;11.07;100.00;101406.66;5097538;28;20449;-76
2022/02/10 10:56:48;;;;;;;10.25;6.57;;;;;;;11.15;98.75;101403.34;5101247;28;20496;-76
2022/02/10 10:59:37;;;;;;;10.05;6.57;;;;;;;11.27;98.70;101406.66;5075718;28;20160;-77
2022/02/10 13:34:59;;;;;;;4.93;3.70;;;;;;;12.28;83.36;101271.19;5089080;28;20404;-73
2022/02/10 14:15:24;;;;;;;6.72;4.15;;;;;;;12.18;85.63;101265.72;5080430;28;20091;-73
2022/02/10 14:18:04;;;;;;;7.45;4.63;;;;;;;12.12;84.86;101278.00;5072421;28;20039;-73
2022/02/10 14:25:43;;;;;;;6.80;4.30;;;;;;;11.66;87.60;101299.56;5070561;28;20047;-73
2022/02/10 14:28:09;;;;;;;4.75;2.35;;;;;;;11.59;88.42;101300.69;5077906;28;20032;-73
2022/02/10 14:30:35;;;;;;;4.18;1.45;;;;;;;11.41;88.09;101302.09;5079070;28;20039;-73
2022/02/10 14:33:00;;;;;;;1.65;1.00;;;;;;;11.29;88.29;101309.91;5109529;28;20048;-73
2022/02/10 14:35:35;;;;;;;3.13;1.52;;;;;;;11.02;88.39;101312.13;5080001;28;20045;-73
2022/02/10 15:11:02;;;;;;;3.13;2.00;;;;;;;9.87;94.97;101338.16;5119712;28;20159;-73
2022/02/10 15:50:11;;;;;;;8.60;2.47;;;;;;;7.85;100.00;101388.19;5086643;27;20032;-74
2022/02/10 16:16:54;;;;;;;9.90;5.45;;;;;;;7.63;100.00;101410.25;5071035;28;20032;-75
2022/02/10 16:19:20;;;;;;;9.05;4.78;;;;;;;7.64;100.00;101423.00;5058970;28;20219;-74
2022/02/10 16:21:57;;;;;;;19.08;9.20;;;;;;;7.58;100.00;101426.78;5111824;27;20087;-77
2022/02/10 16:24:30;;;;;;;13.07;5.38;;;;;;;7.56;100.00;101432.56;5100122;28;20138;-76
2022/02/10 16:26:58;;;;;;;13.35;5.53;;;;;;;7.58;100.00;101429.56;5060187;28;20063;-76
2022/02/10 16:29:25;;;;;;;18.05;7.53;;;;;;;7.46;100.00;101428.78;5064642;28;20050;-75
2022/02/10 16:31:51;;;;;;;14.50;5.63;;;;;;;7.41;100.00;101439.75;5077422;28;20056;-75
2022/02/10 16:34:17;;;;;;;13.00;7.22;;;;;;;7.34;100.00;101435.22;5096639;28;20541;-75
2022/02/10 16:36:42;;;;;;;13.77;6.70;;;;;;;7.16;100.00;101438.25;5070092;28;20060;-74
2022/02/10 16:39:08;;;;;;;11.65;4.60;;;;;;;7.21;100.00;101434.72;5096949;28;20476;-75
2022/02/10 16:41:34;;;;;;;9.25;4.35;;;;;;;7.11;100.00;101451.94;5059621;28;20424;-74
2022/02/10 16:43:59;;;;;;;6.35;2.40;;;;;;;6.90;100.00;101457.06;5077864;28;20496;-75
2022/02/10 16:46:25;;;;;;;5.22;2.78;;;;;;;6.90;100.00;101476.41;5062790;28;20046;-74
2022/02/10 16:48:50;;;;;;;3.58;2.00;;;;;;;6.72;100.00;101479.38;5105387;28;20120;-73
2022/02/10 16:51:18;;;;;;;4.80;2.00;;;;;;;6.62;100.00;101468.94;5076345;28;20625;-73
2022/02/10 16:53:49;;;;;;;6.18;2.60;;;;;;;6.62;100.00;101481.91;5075113;28;20032;-73
2022/02/10 16:56:20;;;;;;;5.60;2.00;;;;;;;6.48;100.00;101476.66;5098172;28;20432;-73
2022/02/10 16:58:56;;;;;;;5.05;2.15;;;;;;;6.39;100.00;101478.13;5078806;28;20032;-77
2022/02/10 17:15:40;;;;;;;7.63;4.90;;;;;;;5.96;100.00;101495.91;5078511;28;20077;-73
2022/02/10 17:25:37;;;;;;;7.28;3.80;;;;;;;5.75;100.00;101513.00;5078302;28;20028;-73
2022/02/10 17:28:06;;;;;;;10.57;5.38;;;;;;;5.63;100.00;101512.97;5079475;28;20074;-73
2022/02/10 17:33:26;;;;;;;7.32;3.40;;;;;;;5.58;100.00;101513.69;5110477;28;20051;-73
2022/02/10 17:44:19;;;;;;;4.63;3.20;;;;;;;5.46;100.00;101521.09;5111913;28;20039;-73
2022/02/10 17:54:26;;;;;;;9.73;3.55;;;;;;;5.34;100.00;101543.06;5096697;28;20111;-75
2022/02/10 17:56:51;;;;;;;4.65;2.85;;;;;;;5.33;100.00;101537.81;5061516;28;20034;-73
2022/02/10 17:59:17;;;;;;;6.35;3.08;;;;;;;5.35;100.00;101539.25;5061794;28;20038;-72
2022/02/10 18:01:44;;;;;;;5.72;2.60;;;;;;;5.30;100.00;101535.53;5077176;28;20092;-72
2022/02/10 18:04:11;;;;;;;7.50;3.85;;;;;;;5.28;100.00;101538.50;5046307;28;20075;-73
2022/02/10 18:06:43;;;;;;;6.22;3.13;;;;;;;5.33;100.00;101537.81;5083812;28;20491;-72
2022/02/10 18:14:49;;;;;;;5.15;3.45;;;;;;;5.34;100.00;101551.34;5077855;28;20468;-73
2022/02/10 18:17:58;;;;;;;7.05;4.03;;;;;;;5.36;100.00;101548.34;5074806;28;20023;-79
2022/02/10 18:20:34;;;;;;;6.15;3.45;;;;;;;5.26;100.00;101561.84;5083105;28;20035;-78
2022/02/10 18:23:13;;;;;;;5.78;3.10;;;;;;;5.30;100.00;101563.06;5057061;28;20040;-74
2022/02/10 18:26:02;;;;;;;6.95;4.47;;;;;;;5.32;100.00;101563.66;5082231;28;20032;-74
2022/02/10 18:29:03;;;;;;;6.00;4.05;;;;;;;5.26;100.00;101572.84;5087026;28;20035;-75
2022/02/10 18:34:23;;;;;;;7.60;4.25;;;;;;;5.34;100.00;101587.16;5057091;28;20044;-76
2022/02/10 19:01:52;;;;;;;13.15;8.15;;;;;;;5.30;100.00;101629.19;5082708;28;20433;-76
2022/02/10 19:07:17;;;;;;;14.68;9.02;;;;;;;5.22;100.00;101643.25;5090720;28;20027;-76
2022/02/10 19:09:46;;;;;;;13.20;8.57;;;;;;;5.17;100.00;101649.44;5092181;28;20031;-76
2022/02/10 19:12:23;;;;;;;12.30;8.48;;;;;;;5.08;100.00;101648.94;5104807;28;20032;-76
2022/02/10 19:14:57;;;;;;;13.32;8.68;;;;;;;5.02;100.00;101652.59;5087847;28;20028;-77
2022/02/10 19:17:24;;;;;;;14.68;9.52;;;;;;;4.98;100.00;101667.88;5075719;28;20039;-75
2022/02/10 19:19:50;;;;;;;14.57;10.32;;;;;;;4.91;100.00;101670.72;5084748;28;20028;-76
2022/02/10 19:22:16;;;;;;;14.90;10.50;;;;;;;4.84;100.00;101669.09;5089355;28;20035;-75
2022/02/10 19:24:41;;;;;;;15.30;9.75;;;;;;;4.80;100.00;101674.22;5078687;28;20370;-77
2022/02/10 19:27:07;;;;;;;14.98;9.77;;;;;;;4.75;100.00;101673.22;5078041;28;20085;-75
2022/02/10 19:29:33;;;;;;;12.73;9.18;;;;;;;4.73;100.00;101672.59;5078457;28;20161;-75
2022/02/10 19:31:58;;;;;;;12.77;9.27;;;;;;;4.67;100.00;101672.44;5101023;28;20393;-74
2022/02/10 19:34:31;;;;;;;11.88;8.57;;;;;;;4.66;100.00;101672.69;5109026;28;20042;-75
2022/02/10 19:36:56;;;;;;;13.60;8.85;;;;;;;4.65;100.00;101673.72;5091880;28;20056;-74
2022/02/10 19:39:23;;;;;;;11.70;8.43;;;;;;;4.56;100.00;101670.41;5095789;28;20507;-74
2022/02/10 19:41:50;;;;;;;14.52;8.98;;;;;;;4.56;100.00;101677.84;5066348;28;20111;-74
2022/02/10 19:44:15;;;;;;;15.70;9.02;;;;;;;4.51;100.00;101675.75;5082653;28;20028;-73
2022/02/10 19:46:42;;;;;;;13.35;9.00;;;;;;;4.44;100.00;101681.31;5066106;28;20403;-73
2022/02/10 19:49:13;;;;;;;17.80;10.05;;;;;;;4.46;100.00;101689.38;5082672;28;20051;-73
2022/02/10 19:51:38;;;;;;;15.05;10.18;;;;;;;4.42;100.00;101688.13;5062913;28;20043;-73
2022/02/10 19:54:04;;;;;;;18.52;10.25;;;;;;;4.46;100.00;101689.38;5064867;28;20083;-73
2022/02/10 19:56:31;;;;;;;16.30;9.90;;;;;;;4.39;100.00;101689.41;5096702;28;20089;-73
2022/02/10 19:58:57;;;;;;;16.55;9.68;;;;;;;4.38;100.00;101692.41;5066835;28;20089;-73
2022/02/10 20:01:24;;;;;;;16.38;9.45;;;;;;;4.33;100.00;101693.06;5098339;28;20032;-73
2022/02/10 20:03:49;;;;;;;14.30;9.43;;;;;;;4.31;100.00;101694.34;5081337;28;20028;-73
2022/02/10 20:06:15;;;;;;;14.27;9.57;;;;;;;4.30;100.00;101689.91;5059787;28;20085;-73
2022/02/10 20:08:40;;;;;;;12.93;8.15;;;;;;;4.25;100.00;101699.66;5053723;28;20040;-73
2022/02/10 20:11:08;;;;;;;13.70;8.88;;;;;;;4.24;100.00;101703.50;5070848;28;20635;-73
2022/02/10 20:13:34;;;;;;;13.23;8.13;;;;;;;4.20;100.00;101701.41;5079753;28;20031;-73
2022/02/10 20:16:04;;;;;;;11.38;7.65;;;;;;;4.18;100.00;101709.03;5067188;28;20031;-73
2022/02/10 20:18:29;;;;;;;9.85;7.22;;;;;;;4.15;100.00;101709.47;5070360;28;20487;-73
2022/02/10 20:20:56;;;;;;;11.32;7.22;;;;;;;4.08;100.00;101715.03;5072619;28;20109;-74
2022/02/10 20:23:22;;;;;;;9.70;7.00;;;;;;;4.06;100.00;101717.16;5087399;28;20495;-74
2022/02/10 20:25:48;;;;;;;11.93;6.80;;;;;;;4.00;100.00;101718.88;5081101;28;20057;-74
2022/02/10 20:28:14;;;;;;;11.10;7.18;;;;;;;3.96;100.00;101725.06;5097602;28;20034;-73
2022/02/10 20:30:39;;;;;;;12.32;7.40;;;;;;;3.94;100.00;101724.44;5066234;28;20035;-73
2022/02/10 20:33:05;;;;;;;13.75;8.27;;;;;;;3.91;100.00;101731.19;5093561;28;20048;-74
2022/02/10 20:35:31;;;;;;;10.95;7.47;;;;;;;3.84;100.00;101729.53;5107231;28;20059;-77
2022/02/10 20:38:01;;;;;;;13.93;8.45;;;;;;;3.74;100.00;101736.38;5063640;28;20413;-76
2022/02/10 20:40:27;;;;;;;15.38;8.77;;;;;;;3.76;100.00;101730.63;5095004;28;20024;-75
2022/02/10 20:42:57;;;;;;;14.40;8.95;;;;;;;3.72;100.00;101737.63;5097795;28;20023;-76
2022/02/10 20:45:22;;;;;;;14.30;9.13;;;;;;;3.68;100.00;101737.25;5083359;28;20032;-73
2022/02/10 20:47:48;;;;;;;12.75;8.70;;;;;;;3.64;100.00;101741.47;5103344;28;20035;-73
2022/02/10 20:50:13;;;;;;;14.73;9.13;;;;;;;3.60;100.00;101742.16;5096990;27;20035;-72
2022/02/10 20:52:39;;;;;;;13.65;9.15;;;;;;;3.54;100.00;101741.94;5076712;28;20035;-73
2022/02/10 20:55:05;;;;;;;14.02;9.18;;;;;;;3.48;100.00;101747.44;5093776;28;20028;-73
2022/02/10 20:57:30;;;;;;;14.77;9.77;;;;;;;3.46;100.00;101749.59;5071327;28;20054;-75
2022/02/10 20:59:56;;;;;;;12.38;8.65;;;;;;;3.41;100.00;101752.97;5053822;28;20032;-74
2022/02/10 21:02:31;;;;;;;14.57;8.32;;;;;;;3.36;100.00;101756.38;5095415;28;20027;-74
2022/02/10 21:05:03;;;;;;;13.50;8.23;;;;;;;3.32;100.00;101755.13;5113391;27;20039;-75
2022/02/10 21:10:01;;;;;;;13.82;8.27;;;;;;;3.22;100.00;101756.63;5092750;28;20039;-75
2022/02/10 21:12:32;;;;;;;12.90;8.27;;;;;;;3.20;100.00;101755.97;5048722;28;20079;-73
2022/02/10 21:14:59;;;;;;;10.65;7.80;;;;;;;3.14;100.00;101766.75;5069945;28;20536;-74
2022/02/10 21:17:27;;;;;;;11.75;8.13;;;;;;;3.12;100.00;101762.53;5082628;27;20077;-76
2022/02/10 21:19:59;;;;;;;11.95;8.50;;;;;;;3.08;100.00;101764.03;5081106;28;20088;-74
2022/02/10 21:22:24;;;;;;;11.35;7.90;;;;;;;3.04;100.00;101766.38;5094243;28;20031;-74
2022/02/10 21:24:55;;;;;;;13.18;7.95;;;;;;;3.03;100.00;101766.56;5115099;27;20043;-74
2022/02/10 21:27:31;;;;;;;12.65;7.78;;;;;;;2.94;100.00;101771.44;5096196;28;20043;-74
2022/02/10 21:30:03;;;;;;;12.48;7.90;;;;;;;2.90;100.00;101773.78;5115076;27;20027;-74
2022/02/10 21:32:31;;;;;;;14.88;7.97;;;;;;;2.88;100.00;101778.63;5111513;27;20130;-74
2022/02/10 21:35:58;;;;;;;12.65;7.65;;;;;;;2.87;100.00;101779.69;5114537;27;20031;-74
2022/02/10 21:37:51;;;;;;;14.40;8.35;;;;;;;2.85;100.00;101780.97;5112233;27;20384;-74
2022/02/10 21:48:26;;;;;;;12.52;7.85;;;;;;;2.73;100.00;101793.59;5125102;27;20467;-74
2022/02/10 22:12:02;;;;;;;12.25;7.40;;;;;;;2.52;100.00;101809.22;5106022;27;20047;-75
2022/02/10 22:20:15;;;;;;;14.55;8.23;;;;;;;2.44;100.00;101817.63;5098447;27;20035;-74
2022/02/10 22:23:00;;;;;;;16.92;8.70;;;;;;;2.42;100.00;101823.34;5101401;27;20031;-75
2022/02/10 22:25:26;;;;;;;15.00;8.93;;;;;;;2.39;100.00;101821.00;5113142;28;20070;-75
2022/02/10 22:27:54;;;;;;;12.88;8.55;;;;;;;2.41;100.00;101826.28;5083870;28;20035;-74
2022/02/10 22:30:39;;;;;;;14.48;8.38;;;;;;;2.39;100.00;101826.47;5134207;27;20156;-74
2022/02/10 22:33:22;;;;;;;12.75;7.75;;;;;;;2.36;100.00;101824.16;5099139;28;20051;-74
2022/02/10 22:35:49;;;;;;;17.27;8.40;;;;;;;2.36;100.00;101817.81;5084412;28;20036;-74
2022/02/10 22:38:15;;;;;;;14.95;8.48;;;;;;;2.33;100.00;101826.47;5087117;28;20101;-74
2022/02/10 22:43:21;;;;;;;14.27;8.27;;;;;;;2.30;100.00;101827.72;5091025;28;20059;-74
2022/02/10 22:45:47;;;;;;;11.68;7.43;;;;;;;2.29;100.00;101826.06;5094397;28;20027;-74
2022/02/10 22:48:13;;;;;;;13.43;7.25;;;;;;;2.27;100.00;101824.56;5093803;28;20036;-74
2022/02/10 22:50:38;;;;;;;13.70;7.22;;;;;;;2.26;100.00;101828.34;5083806;28;20055;-75
2022/02/10 22:53:04;;;;;;;12.88;7.60;;;;;;;2.25;100.00;101832.97;5088371;28;20040;-75
2022/02/10 22:55:30;;;;;;;15.32;7.60;;;;;;;2.22;100.00;101842.47;5092647;28;20434;-74
2022/02/10 22:57:56;;;;;;;12.80;7.38;;;;;;;2.21;100.00;101835.31;5106187;28;20085;-74
2022/02/10 23:00:35;;;;;;;11.93;7.22;;;;;;;2.20;100.00;101841.84;5059559;28;20028;-75
2022/02/10 23:03:01;;;;;;;14.18;7.25;;;;;;;2.18;100.00;101841.19;5059804;28;20040;-74
2022/02/10 23:05:26;;;;;;;12.63;7.25;;;;;;;2.15;100.00;101841.63;5068870;28;20061;-74
2022/02/10 23:07:57;;;;;;;13.57;7.25;;;;;;;2.13;100.00;101851.94;5068411;28;20036;-74
2022/02/10 23:13:09;;;;;;;11.98;6.88;;;;;;;2.09;100.00;101847.94;5079049;28;20031;-74
2022/02/10 23:15:38;;;;;;;12.98;7.00;;;;;;;2.07;100.00;101847.28;5063260;28;20062;-74
2022/02/10 23:18:10;;;;;;;18.38;7.25;;;;;;;2.03;100.00;101853.34;5118295;28;20036;-74
2022/02/10 23:20:35;;;;;;;13.70;6.70;;;;;;;2.02;100.00;101852.53;5117905;27;20028;-74
2022/02/10 23:23:03;;;;;;;13.02;6.63;;;;;;;2.01;100.00;101853.59;5100824;28;20830;-74
2022/02/10 23:25:29;;;;;;;11.35;6.18;;;;;;;2.01;100.00;101857.16;5088561;28;20146;-74
2022/02/10 23:27:54;;;;;;;11.73;5.90;;;;;;;2.00;100.00;101860.09;5111331;27;20031;-74
2022/02/10 23:30:23;;;;;;;15.20;6.85;;;;;;;1.98;100.00;101854.84;5111818;28;20031;-74
2022/02/10 23:32:50;;;;;;;17.27;7.18;;;;;;;1.95;100.00;101852.50;5090908;28;20055;-74
2022/02/10 23:36:25;;;;;;;11.82;6.10;;;;;;;1.95;100.00;101852.50;5100443;28;20034;-74
2022/02/10 23:38:07;;;;;;;14.63;6.25;;;;;;;1.95;100.00;101857.13;5099819;28;20040;-74
2022/02/10 23:40:39;;;;;;;12.43;5.88;;;;;;;1.93;100.00;101857.34;5074295;28;20049;-74
2022/02/10 23:43:05;;;;;;;;;;;;;;;1.92;100.00;101857.53;5079505;28;20043;-74
2022/02/10 23:45:31;;;;;;;11.20;6.53;;;;;;;1.89;100.00;101856.03;5100487;28;19925;-74
2022/02/10 23:47:57;;;;;;;8.73;5.97;;;;;;;1.89;100.00;101863.41;5080392;28;20532;-74
2022/02/10 23:50:27;;;;;;;10.00;5.70;;;;;;;1.86;100.00;101866.56;5113950;28;20108;-74
2022/02/10 23:52:55;;;;;;;12.00;5.70;;;;;;;1.83;100.00;101873.28;5117735;27;20059;-74
2022/02/10 23:55:29;;;;;;;10.35;6.10;;;;;;;1.82;100.00;101881.72;5119569;28;20074;-74
2022/02/10 23:58:10;;;;;;;13.77;6.28;;;;;;;1.79;100.00;101870.13;5114500;28;20056;-74
